KEAN/EAN METAR and TAF weather

Enter ICAO airport designator
Station Type Date Time Source
KEAN METAR 2019/10/21 22:55 UTC NOAA

KEAN 212255Z AUTO 33006G15KT 290V350 10SM BKN065 OVC075 08/M07 A3003 RMK AO2 T00811066


Station Type Date Time Source
KEAN Decoded METAR 2019/10/21 22:55 UTC NOAA

Station name not available
Oct 21, 2019 - 06:55 PM EDT / 2019.10.21 2255 UTC
Wind: from the NNW (330 degrees) at 7 MPH (6 KT) gusting to 17 MPH (15 KT) (direction variable):0
Visibility: 10 mile(s):0
Sky conditions: overcast
Temperature: 46.6 F (8.1 C)
Dew Point: 20.1 F (-6.6 C)
Relative Humidity: 34%
Pressure (altimeter): 30.03 in. Hg (1016 hPa)
ob: KEAN 212255Z AUTO 33006G15KT 290V350 10SM BKN065 OVC075 08/M07 A3003 RMK AO2 T00811066
cycle: 23

Station Type Date Time Source
KEAN TAF UTC NOAA

Error!

Example: see airport list